HET weather

Esmeralda Tower II Helipad
Miguel Hidalgo, Distrito Federal, Mexico

Public forecast

Using degrees Celsius for public forecast. Weather courtesy of forecast.io.

METAR (pilot weather report)

Closest report is Licenciado Benito Juarez International Airport, 7.6 nm (14.0 km) E. Retrieved 2019/06/20 03:48 UTC (27 minutes ago):

MMMX 200348Z 00000KT 8SM SCT020 BKN080 BKN200 17/11 A3035 NOSIG RMK 8/463 HZY

TAF (pilot weather forecast)

Forecast is more than 12 hours old.

Closest forecast is Licenciado Benito Juarez International Airport, 7.6 nm (14.0 km) E. Retrieved 2019/06/19 00:46 UTC (1 day ago):

TAF MMMX 192339Z 2000/2106 25005KT P6SM BKN020CB BKN080 OVC250 TX26/2021Z TN15/2012Z TEMPO 2001/2005 4SM TSRA BKN020CB FM200600 34005KT P6SM SCT020 BKN080 BKN250 FM201800 32015KT P6SM BKN020 BKN080 BKN250 FM210100 02008KT 5SM -RA BKN020CB TEMPO 2101/2105 3SM TSRA OVC020CB